sensor_id;sensor_type;location;lat;lon;timestamp;P1;durP1;ratioP1;P2;durP2;ratioP2
1885;SDS011;943;51.568;6.998;2022-08-14T00:02:23;6.57;;;5.63;;
1885;SDS011;943;51.568;6.998;2022-08-14T00:04:56;6.23;;;5.63;;
1885;SDS011;943;51.568;6.998;2022-08-14T00:07:25;7.73;;;6.00;;
1885;SDS011;943;51.568;6.998;2022-08-14T00:09:53;8.70;;;7.40;;
1885;SDS011;943;51.568;6.998;2022-08-14T00:12:43;7.87;;;6.93;;
1885;SDS011;943;51.568;6.998;2022-08-14T00:15:24;6.70;;;6.03;;
1885;SDS011;943;51.568;6.998;2022-08-14T00:18:13;6.37;;;5.77;;
1885;SDS011;943;51.568;6.998;2022-08-14T00:21:08;9.10;;;6.63;;
1885;SDS011;943;51.568;6.998;2022-08-14T00:23:37;8.60;;;6.77;;
1885;SDS011;943;51.568;6.998;2022-08-14T00:26:06;7.47;;;6.20;;
1885;SDS011;943;51.568;6.998;2022-08-14T00:28:47;7.10;;;6.23;;
1885;SDS011;943;51.568;6.998;2022-08-14T00:31:18;8.23;;;6.60;;
1885;SDS011;943;51.568;6.998;2022-08-14T00:34:07;8.17;;;6.67;;
1885;SDS011;943;51.568;6.998;2022-08-14T00:36:55;7.50;;;6.10;;
1885;SDS011;943;51.568;6.998;2022-08-14T00:39:24;7.37;;;6.40;;
1885;SDS011;943;51.568;6.998;2022-08-14T00:41:52;8.60;;;6.30;;
1885;SDS011;943;51.568;6.998;2022-08-14T00:44:20;6.70;;;6.00;;
1885;SDS011;943;51.568;6.998;2022-08-14T00:47:02;6.90;;;6.13;;
1885;SDS011;943;51.568;6.998;2022-08-14T00:49:36;7.30;;;6.60;;
1885;SDS011;943;51.568;6.998;2022-08-14T00:52:10;7.10;;;5.80;;
1885;SDS011;943;51.568;6.998;2022-08-14T00:54:44;11.33;;;7.27;;
1885;SDS011;943;51.568;6.998;2022-08-14T00:57:27;9.60;;;6.67;;
1885;SDS011;943;51.568;6.998;2022-08-14T01:00:01;8.40;;;6.40;;
1885;SDS011;943;51.568;6.998;2022-08-14T01:03:01;8.00;;;7.20;;
1885;SDS011;943;51.568;6.998;2022-08-14T01:05:34;8.30;;;6.90;;
1885;SDS011;943;51.568;6.998;2022-08-14T01:08:20;9.13;;;7.00;;
1885;SDS011;943;51.568;6.998;2022-08-14T01:11:17;7.20;;;6.60;;
1885;SDS011;943;51.568;6.998;2022-08-14T01:13:45;7.13;;;6.43;;
1885;SDS011;943;51.568;6.998;2022-08-14T01:16:26;7.30;;;6.50;;
1885;SDS011;943;51.568;6.998;2022-08-14T01:18:56;7.80;;;6.70;;
1885;SDS011;943;51.568;6.998;2022-08-14T01:21:45;8.33;;;7.33;;
1885;SDS011;943;51.568;6.998;2022-08-14T01:24:18;8.00;;;7.30;;
1885;SDS011;943;51.568;6.998;2022-08-14T01:26:59;7.63;;;6.83;;
1885;SDS011;943;51.568;6.998;2022-08-14T01:29:32;7.50;;;6.40;;
1885;SDS011;943;51.568;6.998;2022-08-14T01:32:23;8.30;;;7.50;;
1885;SDS011;943;51.568;6.998;2022-08-14T01:34:51;8.60;;;6.90;;
1885;SDS011;943;51.568;6.998;2022-08-14T01:37:45;7.33;;;6.63;;
1885;SDS011;943;51.568;6.998;2022-08-14T01:40:25;8.30;;;6.50;;
1885;SDS011;943;51.568;6.998;2022-08-14T01:43:02;7.30;;;6.60;;
1885;SDS011;943;51.568;6.998;2022-08-14T01:45:47;8.17;;;7.10;;
1885;SDS011;943;51.568;6.998;2022-08-14T01:48:32;8.63;;;6.40;;
1885;SDS011;943;51.568;6.998;2022-08-14T01:51:03;7.50;;;6.80;;
1885;SDS011;943;51.568;6.998;2022-08-14T01:53:46;8.30;;;7.37;;
1885;SDS011;943;51.568;6.998;2022-08-14T01:56:25;8.83;;;7.93;;
1885;SDS011;943;51.568;6.998;2022-08-14T02:02:04;7.50;;;6.70;;
1885;SDS011;943;51.568;6.998;2022-08-14T02:04:46;9.20;;;7.00;;
1885;SDS011;943;51.568;6.998;2022-08-14T02:07:23;10.50;;;7.23;;
1885;SDS011;943;51.568;6.998;2022-08-14T02:10:11;7.43;;;6.73;;
1885;SDS011;943;51.568;6.998;2022-08-14T02:12:41;11.30;;;8.23;;
1885;SDS011;943;51.568;6.998;2022-08-14T02:15:19;8.10;;;7.40;;
1885;SDS011;943;51.568;6.998;2022-08-14T02:17:49;8.17;;;7.30;;
1885;SDS011;943;51.568;6.998;2022-08-14T02:20:17;8.80;;;7.90;;
1885;SDS011;943;51.568;6.998;2022-08-14T02:22:49;7.30;;;6.57;;
1885;SDS011;943;51.568;6.998;2022-08-14T02:25:20;8.00;;;7.10;;
1885;SDS011;943;51.568;6.998;2022-08-14T02:27:55;8.63;;;7.23;;
1885;SDS011;943;51.568;6.998;2022-08-14T02:30:42;9.20;;;8.30;;
1885;SDS011;943;51.568;6.998;2022-08-14T02:33:11;8.17;;;7.30;;
1885;SDS011;943;51.568;6.998;2022-08-14T02:35:40;9.60;;;8.60;;
1885;SDS011;943;51.568;6.998;2022-08-14T02:38:11;9.97;;;8.03;;
1885;SDS011;943;51.568;6.998;2022-08-14T02:40:56;9.70;;;8.73;;
1885;SDS011;943;51.568;6.998;2022-08-14T02:43:25;10.17;;;8.00;;
1885;SDS011;943;51.568;6.998;2022-08-14T02:46:02;8.67;;;7.03;;
1885;SDS011;943;51.568;6.998;2022-08-14T02:48:38;8.60;;;7.70;;
1885;SDS011;943;51.568;6.998;2022-08-14T02:51:28;8.83;;;7.80;;
1885;SDS011;943;51.568;6.998;2022-08-14T02:53:58;9.80;;;7.40;;
1885;SDS011;943;51.568;6.998;2022-08-14T02:56:28;9.30;;;8.40;;
1885;SDS011;943;51.568;6.998;2022-08-14T02:59:16;8.80;;;8.00;;
1885;SDS011;943;51.568;6.998;2022-08-14T03:01:46;9.03;;;8.13;;
1885;SDS011;943;51.568;6.998;2022-08-14T03:04:16;8.90;;;8.00;;
1885;SDS011;943;51.568;6.998;2022-08-14T03:06:46;9.13;;;8.23;;
1885;SDS011;943;51.568;6.998;2022-08-14T03:09:33;11.33;;;8.10;;
1885;SDS011;943;51.568;6.998;2022-08-14T03:12:24;9.73;;;8.57;;
1885;SDS011;943;51.568;6.998;2022-08-14T03:14:57;9.93;;;8.17;;
1885;SDS011;943;51.568;6.998;2022-08-14T03:17:41;10.07;;;8.93;;
1885;SDS011;943;51.568;6.998;2022-08-14T03:20:28;10.33;;;8.67;;
1885;SDS011;943;51.568;6.998;2022-08-14T03:22:56;16.40;;;9.10;;
1885;SDS011;943;51.568;6.998;2022-08-14T03:25:29;9.20;;;8.37;;
1885;SDS011;943;51.568;6.998;2022-08-14T03:28:04;10.30;;;9.20;;
1885;SDS011;943;51.568;6.998;2022-08-14T03:30:55;10.40;;;9.30;;
1885;SDS011;943;51.568;6.998;2022-08-14T03:33:25;11.43;;;9.73;;
1885;SDS011;943;51.568;6.998;2022-08-14T03:36:06;10.13;;;9.07;;
1885;SDS011;943;51.568;6.998;2022-08-14T03:39:00;10.77;;;8.90;;
1885;SDS011;943;51.568;6.998;2022-08-14T03:41:49;12.33;;;9.17;;
1885;SDS011;943;51.568;6.998;2022-08-14T03:44:27;12.23;;;9.00;;
1885;SDS011;943;51.568;6.998;2022-08-14T03:47:14;10.10;;;8.47;;
1885;SDS011;943;51.568;6.998;2022-08-14T03:49:42;9.57;;;8.67;;
1885;SDS011;943;51.568;6.998;2022-08-14T03:52:15;10.93;;;9.90;;
1885;SDS011;943;51.568;6.998;2022-08-14T03:55:07;10.53;;;9.43;;
1885;SDS011;943;51.568;6.998;2022-08-14T03:57:39;10.53;;;8.87;;
1885;SDS011;943;51.568;6.998;2022-08-14T04:00:09;10.87;;;9.83;;
1885;SDS011;943;51.568;6.998;2022-08-14T04:03:00;13.30;;;10.60;;
1885;SDS011;943;51.568;6.998;2022-08-14T04:05:32;10.23;;;9.23;;
1885;SDS011;943;51.568;6.998;2022-08-14T04:08:14;12.47;;;10.20;;
1885;SDS011;943;51.568;6.998;2022-08-14T04:10:55;10.80;;;9.70;;
1885;SDS011;943;51.568;6.998;2022-08-14T04:13:27;10.80;;;9.80;;
1885;SDS011;943;51.568;6.998;2022-08-14T04:16:00;11.30;;;10.10;;
1885;SDS011;943;51.568;6.998;2022-08-14T04:18:42;11.17;;;10.17;;
1885;SDS011;943;51.568;6.998;2022-08-14T04:21:16;11.10;;;9.10;;
1885;SDS011;943;51.568;6.998;2022-08-14T04:23:45;10.83;;;9.73;;
1885;SDS011;943;51.568;6.998;2022-08-14T04:26:23;11.73;;;10.23;;
1885;SDS011;943;51.568;6.998;2022-08-14T04:29:08;11.30;;;10.13;;
1885;SDS011;943;51.568;6.998;2022-08-14T04:31:41;12.40;;;11.10;;
1885;SDS011;943;51.568;6.998;2022-08-14T04:34:32;11.30;;;10.20;;
1885;SDS011;943;51.568;6.998;2022-08-14T04:37:07;10.97;;;9.87;;
1885;SDS011;943;51.568;6.998;2022-08-14T04:39:54;11.40;;;10.20;;
1885;SDS011;943;51.568;6.998;2022-08-14T04:42:41;12.67;;;10.20;;
1885;SDS011;943;51.568;6.998;2022-08-14T04:45:27;11.60;;;10.40;;
1885;SDS011;943;51.568;6.998;2022-08-14T04:48:04;16.20;;;11.17;;
1885;SDS011;943;51.568;6.998;2022-08-14T04:51:03;12.00;;;10.80;;
1885;SDS011;943;51.568;6.998;2022-08-14T04:53:39;13.80;;;11.33;;
1885;SDS011;943;51.568;6.998;2022-08-14T04:56:14;13.33;;;11.87;;
1885;SDS011;943;51.568;6.998;2022-08-14T04:59:00;12.33;;;11.17;;
1885;SDS011;943;51.568;6.998;2022-08-14T05:01:36;17.47;;;11.17;;
1885;SDS011;943;51.568;6.998;2022-08-14T05:04:16;15.77;;;11.00;;
1885;SDS011;943;51.568;6.998;2022-08-14T05:06:49;11.93;;;10.33;;
1885;SDS011;943;51.568;6.998;2022-08-14T05:09:23;12.13;;;10.93;;
1885;SDS011;943;51.568;6.998;2022-08-14T05:11:55;15.83;;;10.17;;
1885;SDS011;943;51.568;6.998;2022-08-14T05:14:43;12.73;;;11.30;;
1885;SDS011;943;51.568;6.998;2022-08-14T05:17:20;13.13;;;10.27;;
1885;SDS011;943;51.568;6.998;2022-08-14T05:20:09;11.63;;;9.70;;
1885;SDS011;943;51.568;6.998;2022-08-14T05:22:57;16.27;;;10.87;;
1885;SDS011;943;51.568;6.998;2022-08-14T05:25:26;15.87;;;11.57;;
1885;SDS011;943;51.568;6.998;2022-08-14T05:28:05;15.83;;;11.17;;
1885;SDS011;943;51.568;6.998;2022-08-14T05:30:55;12.67;;;11.10;;
1885;SDS011;943;51.568;6.998;2022-08-14T05:33:33;13.53;;;12.10;;
1885;SDS011;943;51.568;6.998;2022-08-14T05:36:04;14.63;;;12.10;;
1885;SDS011;943;51.568;6.998;2022-08-14T05:38:43;11.73;;;10.63;;
1885;SDS011;943;51.568;6.998;2022-08-14T05:41:14;13.00;;;11.70;;
1885;SDS011;943;51.568;6.998;2022-08-14T05:43:45;18.90;;;11.53;;
1885;SDS011;943;51.568;6.998;2022-08-14T05:46:16;12.80;;;11.00;;
1885;SDS011;943;51.568;6.998;2022-08-14T05:48:49;13.80;;;11.90;;
1885;SDS011;943;51.568;6.998;2022-08-14T05:51:25;14.10;;;12.77;;
1885;SDS011;943;51.568;6.998;2022-08-14T05:53:55;13.57;;;12.27;;
1885;SDS011;943;51.568;6.998;2022-08-14T05:56:44;12.90;;;11.67;;
1885;SDS011;943;51.568;6.998;2022-08-14T05:59:13;15.57;;;13.20;;
1885;SDS011;943;51.568;6.998;2022-08-14T06:01:42;12.60;;;11.40;;
1885;SDS011;943;51.568;6.998;2022-08-14T06:04:11;13.27;;;11.97;;
1885;SDS011;943;51.568;6.998;2022-08-14T06:06:40;13.13;;;11.60;;
1885;SDS011;943;51.568;6.998;2022-08-14T06:09:08;11.70;;;10.60;;
1885;SDS011;943;51.568;6.998;2022-08-14T06:11:37;13.07;;;11.60;;
1885;SDS011;943;51.568;6.998;2022-08-14T06:14:04;12.07;;;10.87;;
1885;SDS011;943;51.568;6.998;2022-08-14T06:16:46;13.07;;;11.77;;
1885;SDS011;943;51.568;6.998;2022-08-14T06:19:17;14.70;;;11.20;;
1885;SDS011;943;51.568;6.998;2022-08-14T06:21:44;14.13;;;11.10;;
1885;SDS011;943;51.568;6.998;2022-08-14T06:24:13;13.23;;;11.90;;
1885;SDS011;943;51.568;6.998;2022-08-14T06:26:44;12.43;;;11.30;;
1885;SDS011;943;51.568;6.998;2022-08-14T06:29:19;14.07;;;10.73;;
1885;SDS011;943;51.568;6.998;2022-08-14T06:31:48;11.70;;;10.70;;
1885;SDS011;943;51.568;6.998;2022-08-14T06:34:25;12.30;;;11.20;;
1885;SDS011;943;51.568;6.998;2022-08-14T06:37:13;12.30;;;11.20;;
1885;SDS011;943;51.568;6.998;2022-08-14T06:39:44;11.93;;;10.87;;
1885;SDS011;943;51.568;6.998;2022-08-14T06:42:11;12.90;;;11.50;;
1885;SDS011;943;51.568;6.998;2022-08-14T06:44:57;11.50;;;10.50;;
1885;SDS011;943;51.568;6.998;2022-08-14T06:47:28;10.77;;;9.77;;
1885;SDS011;943;51.568;6.998;2022-08-14T06:49:58;11.40;;;10.30;;
1885;SDS011;943;51.568;6.998;2022-08-14T06:52:27;10.77;;;9.80;;
1885;SDS011;943;51.568;6.998;2022-08-14T06:54:54;10.33;;;9.00;;
1885;SDS011;943;51.568;6.998;2022-08-14T06:57:23;10.87;;;9.87;;
1885;SDS011;943;51.568;6.998;2022-08-14T07:00:00;11.50;;;10.30;;
1885;SDS011;943;51.568;6.998;2022-08-14T07:02:27;11.67;;;9.07;;
1885;SDS011;943;51.568;6.998;2022-08-14T07:05:13;10.80;;;9.80;;
1885;SDS011;943;51.568;6.998;2022-08-14T07:07:59;10.63;;;9.73;;
1885;SDS011;943;51.568;6.998;2022-08-14T07:10:27;10.93;;;9.87;;
1885;SDS011;943;51.568;6.998;2022-08-14T07:12:56;9.67;;;8.77;;
1885;SDS011;943;51.568;6.998;2022-08-14T07:15:30;9.83;;;9.00;;
1885;SDS011;943;51.568;6.998;2022-08-14T07:18:08;8.87;;;8.07;;
1885;SDS011;943;51.568;6.998;2022-08-14T07:20:37;9.83;;;8.93;;
1885;SDS011;943;51.568;6.998;2022-08-14T07:23:08;10.63;;;9.17;;
1885;SDS011;943;51.568;6.998;2022-08-14T07:25:47;9.40;;;8.40;;
1885;SDS011;943;51.568;6.998;2022-08-14T07:28:20;9.97;;;8.80;;
1885;SDS011;943;51.568;6.998;2022-08-14T07:30:58;10.77;;;9.77;;
1885;SDS011;943;51.568;6.998;2022-08-14T07:33:35;9.40;;;8.50;;
1885;SDS011;943;51.568;6.998;2022-08-14T07:36:17;9.80;;;8.90;;
1885;SDS011;943;51.568;6.998;2022-08-14T07:38:55;8.87;;;8.07;;
1885;SDS011;943;51.568;6.998;2022-08-14T07:41:38;9.70;;;8.87;;
1885;SDS011;943;51.568;6.998;2022-08-14T07:44:07;9.73;;;8.80;;
1885;SDS011;943;51.568;6.998;2022-08-14T07:46:57;9.00;;;8.30;;
1885;SDS011;943;51.568;6.998;2022-08-14T07:49:26;8.70;;;7.90;;
1885;SDS011;943;51.568;6.998;2022-08-14T07:51:54;10.37;;;8.70;;
1885;SDS011;943;51.568;6.998;2022-08-14T07:54:24;10.87;;;9.77;;
1885;SDS011;943;51.568;6.998;2022-08-14T07:56:58;9.73;;;8.33;;
1885;SDS011;943;51.568;6.998;2022-08-14T07:59:38;10.53;;;9.47;;
1885;SDS011;943;51.568;6.998;2022-08-14T08:02:12;9.57;;;8.70;;
1885;SDS011;943;51.568;6.998;2022-08-14T08:04:49;8.60;;;7.80;;
1885;SDS011;943;51.568;6.998;2022-08-14T08:07:25;9.40;;;8.60;;
1885;SDS011;943;51.568;6.998;2022-08-14T08:09:58;7.87;;;7.13;;
1885;SDS011;943;51.568;6.998;2022-08-14T08:13:16;9.50;;;8.70;;
1885;SDS011;943;51.568;6.998;2022-08-14T08:15:51;11.67;;;8.60;;
1885;SDS011;943;51.568;6.998;2022-08-14T08:18:23;10.30;;;8.80;;
1885;SDS011;943;51.568;6.998;2022-08-14T08:20:54;9.00;;;8.10;;
1885;SDS011;943;51.568;6.998;2022-08-14T08:23:25;9.00;;;8.30;;
1885;SDS011;943;51.568;6.998;2022-08-14T08:26:16;8.80;;;8.07;;
1885;SDS011;943;51.568;6.998;2022-08-14T08:28:53;9.93;;;9.03;;
1885;SDS011;943;51.568;6.998;2022-08-14T08:31:26;8.60;;;7.80;;
1885;SDS011;943;51.568;6.998;2022-08-14T08:34:02;9.57;;;8.50;;
1885;SDS011;943;51.568;6.998;2022-08-14T08:36:39;9.90;;;9.10;;
1885;SDS011;943;51.568;6.998;2022-08-14T08:39:12;10.43;;;7.80;;
1885;SDS011;943;51.568;6.998;2022-08-14T08:41:48;8.90;;;8.10;;
1885;SDS011;943;51.568;6.998;2022-08-14T08:44:19;8.37;;;7.57;;
1885;SDS011;943;51.568;6.998;2022-08-14T08:46:58;8.80;;;8.10;;
1885;SDS011;943;51.568;6.998;2022-08-14T08:49:36;8.40;;;7.67;;
1885;SDS011;943;51.568;6.998;2022-08-14T08:52:25;13.00;;;8.60;;
1885;SDS011;943;51.568;6.998;2022-08-14T08:54:58;8.20;;;7.43;;
1885;SDS011;943;51.568;6.998;2022-08-14T08:57:32;10.13;;;8.37;;
1885;SDS011;943;51.568;6.998;2022-08-14T09:00:26;8.70;;;7.90;;
1885;SDS011;943;51.568;6.998;2022-08-14T09:02:59;9.37;;;7.93;;
1885;SDS011;943;51.568;6.998;2022-08-14T09:05:50;9.10;;;8.20;;
1885;SDS011;943;51.568;6.998;2022-08-14T09:08:28;7.90;;;7.13;;
1885;SDS011;943;51.568;6.998;2022-08-14T09:11:06;8.95;;;8.15;;
1885;SDS011;943;51.568;6.998;2022-08-14T09:13:47;7.55;;;6.85;;
1885;SDS011;943;51.568;6.998;2022-08-14T09:16:19;7.95;;;6.70;;
1885;SDS011;943;51.568;6.998;2022-08-14T09:18:53;8.02;;;7.32;;
1885;SDS011;943;51.568;6.998;2022-08-14T09:21:21;8.10;;;7.30;;
1885;SDS011;943;51.568;6.998;2022-08-14T09:23:56;7.40;;;6.70;;
1885;SDS011;943;51.568;6.998;2022-08-14T09:26:46;8.77;;;7.88;;
1885;SDS011;943;51.568;6.998;2022-08-14T09:29:16;7.47;;;6.78;;
1885;SDS011;943;51.568;6.998;2022-08-14T09:31:49;9.30;;;7.43;;
1885;SDS011;943;51.568;6.998;2022-08-14T09:47:43;6.20;;;5.05;;
1885;SDS011;943;51.568;6.998;2022-08-14T09:50:23;5.82;;;5.32;;
1885;SDS011;943;51.568;6.998;2022-08-14T09:53:10;7.22;;;6.53;;
1885;SDS011;943;51.568;6.998;2022-08-14T09:56:27;6.82;;;6.28;;
1885;SDS011;943;51.568;6.998;2022-08-14T09:59:08;6.60;;;6.00;;
1885;SDS011;943;51.568;6.998;2022-08-14T10:01:43;8.07;;;7.37;;
1885;SDS011;943;51.568;6.998;2022-08-14T10:07:05;6.80;;;6.20;;
1885;SDS011;943;51.568;6.998;2022-08-14T10:09:47;7.53;;;6.57;;
1885;SDS011;943;51.568;6.998;2022-08-14T10:12:46;7.87;;;7.17;;
1885;SDS011;943;51.568;6.998;2022-08-14T10:15:19;7.27;;;6.63;;
1885;SDS011;943;51.568;6.998;2022-08-14T10:18:14;8.53;;;7.20;;
1885;SDS011;943;51.568;6.998;2022-08-14T10:23:27;7.80;;;7.20;;
1885;SDS011;943;51.568;6.998;2022-08-14T10:26:13;7.90;;;7.10;;
1885;SDS011;943;51.568;6.998;2022-08-14T10:28:53;7.83;;;7.07;;
1885;SDS011;943;51.568;6.998;2022-08-14T10:31:55;8.10;;;7.30;;
1885;SDS011;943;51.568;6.998;2022-08-14T10:34:29;7.97;;;7.27;;
1885;SDS011;943;51.568;6.998;2022-08-14T10:37:08;7.17;;;6.57;;
1885;SDS011;943;51.568;6.998;2022-08-14T10:39:45;7.57;;;6.83;;
1885;SDS011;943;51.568;6.998;2022-08-14T10:42:37;7.47;;;6.77;;
1885;SDS011;943;51.568;6.998;2022-08-14T10:45:16;6.60;;;6.00;;
1885;SDS011;943;51.568;6.998;2022-08-14T10:48:00;8.33;;;7.53;;
1885;SDS011;943;51.568;6.998;2022-08-14T10:51:01;8.37;;;7.57;;
1885;SDS011;943;51.568;6.998;2022-08-14T10:53:34;8.50;;;7.70;;
1885;SDS011;943;51.568;6.998;2022-08-14T10:56:07;9.70;;;7.20;;
1885;SDS011;943;51.568;6.998;2022-08-14T10:59:01;8.33;;;7.57;;
1885;SDS011;943;51.568;6.998;2022-08-14T11:01:36;10.73;;;7.20;;
1885;SDS011;943;51.568;6.998;2022-08-14T11:04:18;8.03;;;7.23;;
1885;SDS011;943;51.568;6.998;2022-08-14T11:06:54;7.03;;;6.33;;
1885;SDS011;943;51.568;6.998;2022-08-14T11:09:22;8.20;;;7.40;;
1885;SDS011;943;51.568;6.998;2022-08-14T11:11:55;12.50;;;7.43;;
1885;SDS011;943;51.568;6.998;2022-08-14T11:14:56;8.00;;;7.20;;
1885;SDS011;943;51.568;6.998;2022-08-14T11:17:30;8.43;;;7.63;;
1885;SDS011;943;51.568;6.998;2022-08-14T11:20:04;7.80;;;7.00;;
1885;SDS011;943;51.568;6.998;2022-08-14T11:22:42;7.60;;;6.90;;
1885;SDS011;943;51.568;6.998;2022-08-14T11:25:24;7.70;;;6.97;;
1885;SDS011;943;51.568;6.998;2022-08-14T11:28:09;7.40;;;6.47;;
1885;SDS011;943;51.568;6.998;2022-08-14T11:30:45;8.60;;;7.83;;
1885;SDS011;943;51.568;6.998;2022-08-14T11:33:23;7.70;;;7.00;;
1885;SDS011;943;51.568;6.998;2022-08-14T11:36:00;8.27;;;7.43;;
1885;SDS011;943;51.568;6.998;2022-08-14T11:38:44;7.30;;;6.70;;
1885;SDS011;943;51.568;6.998;2022-08-14T11:41:13;7.63;;;6.93;;
1885;SDS011;943;51.568;6.998;2022-08-14T11:43:43;7.57;;;6.87;;
1885;SDS011;943;51.568;6.998;2022-08-14T11:46:24;7.13;;;6.53;;
1885;SDS011;943;51.568;6.998;2022-08-14T11:49:02;9.60;;;7.80;;
1885;SDS011;943;51.568;6.998;2022-08-14T11:51:32;7.30;;;6.63;;
1885;SDS011;943;51.568;6.998;2022-08-14T11:54:19;7.33;;;6.13;;
1885;SDS011;943;51.568;6.998;2022-08-14T11:56:59;7.70;;;6.90;;
1885;SDS011;943;51.568;6.998;2022-08-14T11:59:27;7.27;;;6.63;;
1885;SDS011;943;51.568;6.998;2022-08-14T12:02:11;7.10;;;6.50;;
1885;SDS011;943;51.568;6.998;2022-08-14T12:05:02;7.60;;;6.97;;
1885;SDS011;943;51.568;6.998;2022-08-14T12:07:34;7.50;;;6.80;;
1885;SDS011;943;51.568;6.998;2022-08-14T12:10:16;7.10;;;6.50;;
1885;SDS011;943;51.568;6.998;2022-08-14T12:15:57;7.73;;;7.03;;
1885;SDS011;943;51.568;6.998;2022-08-14T12:18:46;7.50;;;6.70;;
1885;SDS011;943;51.568;6.998;2022-08-14T12:21:20;7.70;;;7.00;;
1885;SDS011;943;51.568;6.998;2022-08-14T12:24:09;7.37;;;6.67;;
1885;SDS011;943;51.568;6.998;2022-08-14T12:26:57;12.90;;;6.43;;
1885;SDS011;943;51.568;6.998;2022-08-14T12:29:26;7.87;;;7.10;;
1885;SDS011;943;51.568;6.998;2022-08-14T12:32:00;8.60;;;6.73;;
1885;SDS011;943;51.568;6.998;2022-08-14T12:34:34;8.23;;;7.50;;
1885;SDS011;943;51.568;6.998;2022-08-14T12:37:03;8.10;;;7.30;;
1885;SDS011;943;51.568;6.998;2022-08-14T12:39:34;7.67;;;6.97;;
1885;SDS011;943;51.568;6.998;2022-08-14T12:42:06;7.97;;;7.23;;
1885;SDS011;943;51.568;6.998;2022-08-14T12:44:52;7.67;;;7.00;;
1885;SDS011;943;51.568;6.998;2022-08-14T12:47:29;7.80;;;7.10;;
1885;SDS011;943;51.568;6.998;2022-08-14T12:49:57;7.77;;;7.07;;
1885;SDS011;943;51.568;6.998;2022-08-14T12:52:30;7.10;;;6.40;;
1885;SDS011;943;51.568;6.998;2022-08-14T12:55:26;7.70;;;7.10;;
1885;SDS011;943;51.568;6.998;2022-08-14T12:58:14;7.67;;;6.97;;
1885;SDS011;943;51.568;6.998;2022-08-14T13:01:04;8.10;;;7.10;;
1885;SDS011;943;51.568;6.998;2022-08-14T13:03:46;7.83;;;7.03;;
1885;SDS011;943;51.568;6.998;2022-08-14T13:06:17;8.00;;;7.03;;
1885;SDS011;943;51.568;6.998;2022-08-14T13:08:49;7.40;;;6.67;;
1885;SDS011;943;51.568;6.998;2022-08-14T13:11:18;8.13;;;6.80;;
1885;SDS011;943;51.568;6.998;2022-08-14T13:13:51;7.73;;;7.03;;
1885;SDS011;943;51.568;6.998;2022-08-14T13:16:25;7.97;;;7.20;;
1885;SDS011;943;51.568;6.998;2022-08-14T13:19:03;7.10;;;6.50;;
1885;SDS011;943;51.568;6.998;2022-08-14T13:21:42;7.60;;;6.87;;
1885;SDS011;943;51.568;6.998;2022-08-14T13:24:36;6.93;;;5.90;;
1885;SDS011;943;51.568;6.998;2022-08-14T13:27:05;7.70;;;6.97;;
1885;SDS011;943;51.568;6.998;2022-08-14T13:29:38;7.83;;;7.13;;
1885;SDS011;943;51.568;6.998;2022-08-14T13:32:12;7.60;;;6.90;;
1885;SDS011;943;51.568;6.998;2022-08-14T13:34:41;7.00;;;6.30;;
1885;SDS011;943;51.568;6.998;2022-08-14T13:37:17;7.40;;;6.77;;
1885;SDS011;943;51.568;6.998;2022-08-14T13:39:48;7.33;;;6.43;;
1885;SDS011;943;51.568;6.998;2022-08-14T13:42:23;6.97;;;6.37;;
1885;SDS011;943;51.568;6.998;2022-08-14T13:44:57;7.53;;;6.83;;
1885;SDS011;943;51.568;6.998;2022-08-14T13:47:31;10.00;;;6.93;;
1885;SDS011;943;51.568;6.998;2022-08-14T13:50:00;7.50;;;6.80;;
1885;SDS011;943;51.568;6.998;2022-08-14T13:52:40;7.07;;;6.37;;
1885;SDS011;943;51.568;6.998;2022-08-14T13:55:21;8.03;;;7.33;;
1885;SDS011;943;51.568;6.998;2022-08-14T13:57:57;7.60;;;6.90;;
1885;SDS011;943;51.568;6.998;2022-08-14T14:00:34;9.20;;;8.40;;
1885;SDS011;943;51.568;6.998;2022-08-14T14:03:20;7.50;;;6.90;;
1885;SDS011;943;51.568;6.998;2022-08-14T14:05:57;8.00;;;7.30;;
1885;SDS011;943;51.568;6.998;2022-08-14T14:08:28;7.70;;;7.00;;
1885;SDS011;943;51.568;6.998;2022-08-14T14:11:13;7.60;;;7.00;;
1885;SDS011;943;51.568;6.998;2022-08-14T14:13:50;7.17;;;6.47;;
1885;SDS011;943;51.568;6.998;2022-08-14T14:16:25;8.20;;;7.50;;
1885;SDS011;943;51.568;6.998;2022-08-14T14:18:56;8.10;;;7.30;;
1885;SDS011;943;51.568;6.998;2022-08-14T14:21:35;7.13;;;6.50;;
1885;SDS011;943;51.568;6.998;2022-08-14T14:24:06;7.20;;;6.37;;
1885;SDS011;943;51.568;6.998;2022-08-14T14:26:47;8.17;;;7.03;;
1885;SDS011;943;51.568;6.998;2022-08-14T14:29:17;8.40;;;7.70;;
1885;SDS011;943;51.568;6.998;2022-08-14T14:31:51;7.20;;;6.60;;
1885;SDS011;943;51.568;6.998;2022-08-14T14:34:20;7.77;;;7.00;;
1885;SDS011;943;51.568;6.998;2022-08-14T14:36:56;8.33;;;7.50;;
1885;SDS011;943;51.568;6.998;2022-08-14T14:39:31;7.57;;;6.87;;
1885;SDS011;943;51.568;6.998;2022-08-14T14:42:20;7.47;;;6.77;;
1885;SDS011;943;51.568;6.998;2022-08-14T14:45:05;7.60;;;7.00;;
1885;SDS011;943;51.568;6.998;2022-08-14T14:47:51;8.50;;;7.17;;
1885;SDS011;943;51.568;6.998;2022-08-14T14:50:24;8.00;;;7.20;;
1885;SDS011;943;51.568;6.998;2022-08-14T14:52:53;6.90;;;6.30;;
1885;SDS011;943;51.568;6.998;2022-08-14T14:55:38;7.93;;;7.13;;
1885;SDS011;943;51.568;6.998;2022-08-14T14:58:31;6.93;;;6.37;;
1885;SDS011;943;51.568;6.998;2022-08-14T15:01:03;7.43;;;6.70;;
1885;SDS011;943;51.568;6.998;2022-08-14T15:03:38;6.93;;;6.20;;
1885;SDS011;943;51.568;6.998;2022-08-14T15:06:11;7.83;;;6.67;;
1885;SDS011;943;51.568;6.998;2022-08-14T15:08:43;7.47;;;6.87;;
1885;SDS011;943;51.568;6.998;2022-08-14T15:11:25;8.00;;;7.20;;
1885;SDS011;943;51.568;6.998;2022-08-14T15:13:57;9.77;;;8.63;;
1885;SDS011;943;51.568;6.998;2022-08-14T15:16:46;7.10;;;6.40;;
1885;SDS011;943;51.568;6.998;2022-08-14T15:19:15;6.83;;;6.23;;
1885;SDS011;943;51.568;6.998;2022-08-14T15:21:48;6.80;;;6.20;;
1885;SDS011;943;51.568;6.998;2022-08-14T15:24:16;6.83;;;6.23;;
1885;SDS011;943;51.568;6.998;2022-08-14T15:26:52;6.23;;;5.73;;
1885;SDS011;943;51.568;6.998;2022-08-14T15:29:24;6.90;;;6.30;;
1885;SDS011;943;51.568;6.998;2022-08-14T15:31:52;6.60;;;6.00;;
1885;SDS011;943;51.568;6.998;2022-08-14T15:34:21;8.73;;;5.90;;
1885;SDS011;943;51.568;6.998;2022-08-14T15:37:09;6.30;;;5.70;;
1885;SDS011;943;51.568;6.998;2022-08-14T15:39:41;7.10;;;5.80;;
1885;SDS011;943;51.568;6.998;2022-08-14T15:42:10;7.87;;;7.20;;
1885;SDS011;943;51.568;6.998;2022-08-14T15:44:45;7.17;;;6.57;;
1885;SDS011;943;51.568;6.998;2022-08-14T15:47:27;7.17;;;6.57;;
1885;SDS011;943;51.568;6.998;2022-08-14T15:49:58;7.10;;;6.50;;
1885;SDS011;943;51.568;6.998;2022-08-14T15:52:34;8.13;;;6.47;;
1885;SDS011;943;51.568;6.998;2022-08-14T15:55:06;7.03;;;6.43;;
1885;SDS011;943;51.568;6.998;2022-08-14T15:57:43;10.93;;;6.50;;
1885;SDS011;943;51.568;6.998;2022-08-14T16:00:30;7.47;;;6.77;;
1885;SDS011;943;51.568;6.998;2022-08-14T16:03:20;7.73;;;5.90;;
1885;SDS011;943;51.568;6.998;2022-08-14T16:06:03;6.33;;;5.73;;
1885;SDS011;943;51.568;6.998;2022-08-14T16:08:43;6.70;;;6.10;;
1885;SDS011;943;51.568;6.998;2022-08-14T16:11:25;8.10;;;7.40;;
1885;SDS011;943;51.568;6.998;2022-08-14T16:13:58;6.90;;;6.30;;
1885;SDS011;943;51.568;6.998;2022-08-14T16:16:27;7.33;;;6.63;;
1885;SDS011;943;51.568;6.998;2022-08-14T16:19:16;6.83;;;6.03;;
1885;SDS011;943;51.568;6.998;2022-08-14T16:21:49;8.97;;;7.47;;
1885;SDS011;943;51.568;6.998;2022-08-14T16:24:40;7.33;;;6.63;;
1885;SDS011;943;51.568;6.998;2022-08-14T16:27:28;6.90;;;6.30;;
1885;SDS011;943;51.568;6.998;2022-08-14T16:30:08;7.40;;;6.80;;
1885;SDS011;943;51.568;6.998;2022-08-14T16:32:52;6.87;;;6.30;;
1885;SDS011;943;51.568;6.998;2022-08-14T16:35:25;6.90;;;6.23;;
1885;SDS011;943;51.568;6.998;2022-08-14T16:38:21;6.43;;;5.83;;
1885;SDS011;943;51.568;6.998;2022-08-14T16:41:13;6.90;;;6.40;;
1885;SDS011;943;51.568;6.998;2022-08-14T16:43:47;7.37;;;6.70;;
1885;SDS011;943;51.568;6.998;2022-08-14T16:46:46;6.23;;;5.63;;
1885;SDS011;943;51.568;6.998;2022-08-14T16:49:22;6.90;;;6.30;;
1885;SDS011;943;51.568;6.998;2022-08-14T16:52:11;6.37;;;5.77;;
1885;SDS011;943;51.568;6.998;2022-08-14T16:55:02;7.60;;;6.90;;
1885;SDS011;943;51.568;6.998;2022-08-14T16:57:44;8.07;;;6.23;;